ADDS METAR Data INFO
IDs: Format: Raw Decoded Include TAF

Data at: 1911 UTC 23 Apr 2018

KSNY 231853Z AUTO 16016G21KT 10SM CLR 17/04 A3007 RMK AO2 SLP169 T01720044
KSNY 231753Z AUTO 15017G21KT 10SM CLR 17/04 A3010 RMK AO2 SLP181 T01670044 10167 20011 58004
KSNY 231653Z AUTO 16015KT 10SM CLR 15/04 A3012 RMK AO2 SLP188 T01500039
KSNY 231553Z AUTO 18013KT 10SM CLR 12/04 A3012 RMK AO2 SLP195 T01220039
KSNY 231453Z AUTO 16009KT 10SM CLR 11/04 A3011 RMK AO2 SLP192 T01060044 50002
KSNY 231353Z AUTO 16008KT 10SM CLR 08/04 A3012 RMK AO2 SLP196 T00780039
KSNY 231253Z AUTO 17007KT 10SM CLR 04/01 A3011 RMK AO2 SLP192 T00390006
KSNY 231153Z AUTO 17005KT 10SM CLR 01/00 A3011 RMK AO2 SLP190 T00110000 10028 20011 56005
KSNY 231053Z AUTO 18007KT 10SM CLR 02/01 A3011 RMK AO2 SLP189 T00170006
KSNY 230953Z AUTO 17007KT 10SM CLR 02/00 A3011 RMK AO2 SLP190 T00170000
KSNY 230853Z AUTO 18006KT 10SM CLR 02/00 A3012 RMK AO2 SLP196 T00170000 58012
KSNY 230753Z AUTO 18007KT 10SM CLR 02/00 A3014 RMK AO2 SLP201 T00170000
KSNY 230653Z AUTO 18008KT 10SM CLR 02/00 A3016 RMK AO2 SLP210 T00220000 401560011
KSNY 230553Z AUTO 19007KT 10SM CLR 02/01 A3016 RMK AO2 SLP214 T00170006 10139 20011 51005
KSNY 230453Z AUTO 17006KT 10SM CLR 03/M01 A3016 RMK AO2 SLP216 T00331006
KSNY 230353Z AUTO 16007KT 10SM CLR 03/00 A3016 RMK AO2 SLP218 T00330000
KSNY 230253Z AUTO 15007KT 10SM CLR 04/M01 A3015 RMK AO2 SLP216 T00441006 53008
KSNY 230153Z AUTO 14007KT 10SM CLR 08/M02 A3013 RMK AO2 SLP207 T00781017
KSNY 230053Z AUTO 15010KT 10SM CLR 12/00 A3012 RMK AO2 SLP198 T01170000
KSNY 222353Z AUTO 15012KT 10SM CLR 14/00 A3012 RMK AO2 SLP193 T01390000 10156 20106 56007
KSNY 222253Z AUTO 15007KT 10SM FEW045 14/M01 A3012 RMK AO2 SLP192 T01441006
KSNY 222153Z AUTO VRB03KT 10SM BKN042 14/00 A3013 RMK AO2 SLP193 T01440000
KSNY 222053Z AUTO VRB04KT 10SM CLR 14/M02 A3014 RMK AO2 SLP201 T01391017 58011
KSNY 221953Z AUTO 13005KT 10SM BKN035 13/00 A3016 RMK AO2 SLP212 T01330000
KSNY 221853Z AUTO 33004KT 10SM BKN030 12/00 A3018 RMK AO2 SLP218 T01170000
KSNY 221845Z AUTO VRB03KT 10SM BKN028 12/00 A3018 RMK AO2 T01170000
KSNY 221822Z AUTO 10SM SCT028 11/01 A3019 RMK AO2 T01110006
KSNY 221812Z AUTO VRB05KT 10SM BKN028 11/00 A3019 RMK AO2 T01110000
KSNY 221753Z AUTO 10SM FEW026 11/00 A3020 RMK AO2 SLP223 T01110000 10111 20017 56005
KSNY 221733Z AUTO 00000KT 10SM FEW022 09/00 A3020 RMK AO2 T00940000
KSNY 221653Z AUTO 00000KT 10SM BKN020 09/00 A3020 RMK AO2 SLP232 T00890000
KSNY 221621Z AUTO 00000KT 10SM BKN015 08/00 A3021 RMK AO2 T00780000
KSNY 221607Z AUTO VRB04KT 10SM BKN013 07/01 A3021 RMK AO2 T00720006
KSNY 221553Z AUTO VRB03KT 10SM BKN009 07/01 A3020 RMK AO2 CIG 008V013 SLP238 T00670006
KSNY 221516Z AUTO 22004KT 10SM BKN006 05/01 A3020 RMK AO2 CIG 004V008 T00500006
KSNY 221453Z AUTO 24005KT 10SM OVC004 04/01 A3021 RMK AO2 SLP241 T00440006 53007
KSNY 221419Z AUTO 21005KT 3SM BR OVC002 03/01 A3021 RMK AO2 T00280006
KSNY 221401Z AUTO 22008KT 1 1/4SM BR OVC002 03/01 A3020 RMK AO2 T00280006
KSNY 221353Z AUTO 21009KT 1/4SM FG VV002 02/01 A3020 RMK AO2 SLP239 T00220006
KSNY 221255Z AUTO 18009KT 3/4SM BR OVC002 02/01 A3020 RMK AO2 T00170006
KSNY 221253Z AUTO 19009KT 1 1/4SM BR OVC002 02/01 A3020 RMK AO2 SLP238 T00170006
KSNY 221235Z AUTO 19010KT 1 1/4SM BR OVC002 02/01 A3019 RMK AO2 T00170006
KSNY 221224Z AUTO 19010KT 1/2SM FG OVC002 02/01 A3019 RMK AO2 T00170006
KSNY 221216Z AUTO 17009KT 1SM BR OVC003 02/01 A3019 RMK AO2 T00170006
KSNY 221211Z AUTO 17008KT 2 1/2SM BR OVC003 02/01 A3019 RMK AO2 T00170006
KSNY 221153Z AUTO 17007KT 9SM OVC004 02/01 A3019 RMK AO2 SLP232 T00220006 10033 20011 53006
KSNY 221053Z AUTO 18007KT 8SM OVC006 02/01 A3017 RMK AO2 SLP227 T00220006
KSNY 220953Z AUTO 19008KT 10SM OVC006 03/01 A3017 RMK AO2 SLP226 T00280006
KSNY 220853Z AUTO 21009KT 9SM OVC005 03/01 A3017 RMK AO2 SLP225 T00280006 56009
KSNY 220848Z AUTO 21008KT 9SM OVC004 03/01 A3017 RMK AO2
KSNY 220836Z AUTO 22007KT 8SM OVC005 03/01 A3017 RMK AO2 T00280006
KSNY 220820Z AUTO 19007KT 7SM OVC004 02/M02 A3017 RMK AO2 T00221017
KSNY 220802Z AUTO 20007KT 6SM BR BKN006 01/01 A3018 RMK AO2 T00110006
KSNY 220753Z AUTO 20007KT 7SM SCT006 BKN028 01/01 A3018 RMK AO2 SLP237 T00110006